UUMO

Ostafyevo International Airport

Moscow, Russian Federation
TAF UUMO 251659Z 2518/2603 25005MPS 9999 BKN040 TEMPO 2518/2521 20007MPS -RA BKN010 BECMG 2601/2603 16005MPS BKN020
Issued Valid From Valid To
Apr-25 @ 16:59 UTC
(an hour ago)
Apr-25 @ 18:00 UTC
(8 minutes ago)
Apr-26 @ 03:00 UTC
(in 9 hours)
Apr-25 @ 18:00 to Apr-26 @ 01:00
TAF UUMO 251659Z 2518/2603 25005MPS 9999 BKN040
Wind Visibility Clouds
250° at 10 knots 10,000+ meters
  • Broken at 4,000' AGL
Temporary Apr-25 @ 18:00 to Apr-25 @ 21:00
TEMPO 2518/2521 20007MPS -RA BKN010
Wind Clouds Conditions
200° at 14 knots
  • Broken at 1,000' AGL
  • Light Rain
Becoming Apr-26 @ 01:00 to Apr-26 @ 03:00
BECMG 2601/2603 16005MPS BKN020
Wind Visibility Clouds
160° at 10 knots 10,000+ meters
  • Broken at 2,000' AGL
TAF UUMO 251659Z 2518/2603 25005MPS 9999 BKN040 TEMPO 2518/2521 20007MPS -RA BKN010 BECMG 2601/2603 16005MPS BKN020
Issued Apr-25 @ 16:59 UTC
(an hour ago)
Valid From Apr-25 @ 18:00 UTC
(8 minutes ago)
Valid To Apr-26 @ 03:00 UTC
(in 9 hours)
Apr-25 @ 18:00 - Apr-26 @ 01:00
Wind Visibility
250° at 10 knots 10,000+ meters
Clouds
  • Broken at 4,000' AGL
Temporary Apr-25 @ 18:00 - Apr-25 @ 21:00
Wind
200° at 14 knots
Clouds
  • Broken at 1,000' AGL
Conditions
  • Light Rain
Becoming Apr-26 @ 01:00 - Apr-26 @ 03:00
Wind Visibility
160° at 10 knots 10,000+ meters
Clouds
  • Broken at 2,000' AGL